CheckWX is a tool to help pilots better visualize weather data.  It is not intended as a substitute for an official pre-flight weather briefing.

06:21:09 UTC

40J METAR
Perry-Foley Airport
Perry, Florida, USA
Current

6 mins ago

K40J 230615Z AUTO 00000KT 10SM CLR 13/12 A3014 RMK AO2 T01300120
Observed
Apr-23 @ 06:15 UTC
Visibility
10 SM
Flight Rules
VFR
Cloud Levels
  • Clear skies
Temperature
13°C / 55°F
Dewpoint
12°C / 54°F
Humidity
94%
Altimeter
30.14" Hg
Pressure
1020.62 hPa
Previous

26 mins ago

K40J 230555Z AUTO 00000KT 10SM CLR 13/12 A3015 RMK AO2 T01300118 10211 20130
Observed
Apr-23 @ 05:55 UTC
Visibility
10 SM
Flight Rules
VFR
Cloud Levels
  • Clear skies
Temperature
13°C / 55°F
Dewpoint
12°C / 54°F
Humidity
94%
Altimeter
30.15" Hg
Pressure
1021.02 hPa
Previous

46 mins ago

K40J 230535Z AUTO 00000KT 10SM CLR 14/12 A3015 RMK AO2 T01400119
Observed
Apr-23 @ 05:35 UTC
Visibility
10 SM
Flight Rules
VFR
Cloud Levels
  • Clear skies
Temperature
14°C / 57°F
Dewpoint
12°C / 54°F
Humidity
88%
Altimeter
30.15" Hg
Pressure
1021.02 hPa